Time;durP1;ratioP1;P1;durP2;ratioP2;P2;SDS_P1;SDS_P2;PMS_P1;PMS_P2;Temp;Humidity;BMP_temperature;BMP_pressure;BME280_temperature;BME280_humidity;BME280_pressure;Samples;Min_cycle;Max_cycle;Signal;HPM_P1;HPM_P2
2023/03/19 00:08:58;;;;;;;1.43;1.00;;;;;;;10.09;46.91;100087.41;20876717;28;20509;-86
2023/03/19 00:19:01;;;;;;;5.60;1.30;;;;;;;10.64;45.00;100086.25;20884812;28;20620;-88
2023/03/19 00:29:04;;;;;;;5.18;1.60;;;;;;;10.83;44.44;100085.69;20878162;28;20184;-93
2023/03/19 00:39:06;;;;;;;5.10;1.40;;;;;;;10.45;45.61;100088.75;20903555;28;20200;-87
2023/03/19 00:49:09;;;;;;;10.70;5.18;;;;;;;10.16;46.90;100079.22;20908274;28;20265;-87
2023/03/19 00:59:12;;;;;;;12.43;5.13;;;;;;;10.24;46.85;100085.94;20902592;28;20216;-86
2023/03/19 01:09:14;;;;;;;3.37;1.80;;;;;;;9.90;47.19;100104.00;20882172;28;20231;-92
2023/03/19 01:19:17;;;;;;;4.73;1.43;;;;;;;10.54;46.79;100092.34;20905072;28;20215;-87
2023/03/19 01:29:19;;;;;;;3.92;1.70;;;;;;;9.77;49.11;100077.72;20901848;28;20188;-91
2023/03/19 01:39:21;;;;;;;7.70;1.73;;;;;;;9.69;49.74;100086.25;20870663;28;20223;-93
2023/03/19 01:49:25;;;;;;;3.20;1.63;;;;;;;9.79;49.50;100081.03;20928824;28;20204;-87
2023/03/19 01:59:46;;;;;;;6.43;2.07;;;;;;;8.98;51.76;100089.78;20952562;28;20223;-85
2023/03/19 02:10:13;;;;;;;2.90;1.48;;;;;;;9.07;50.96;100078.47;20920215;28;20227;-93
2023/03/19 02:20:26;;;;;;;3.87;1.10;;;;;;;9.18;50.70;100077.72;20900713;28;20202;-87
2023/03/19 02:30:31;;;;;;;2.33;1.57;;;;;;;8.90;51.25;100072.94;20880515;28;20200;-85
2023/03/19 02:40:52;;;;;;;4.80;1.80;;;;;;;8.76;52.28;100065.53;20889426;28;20196;-93
2023/03/19 02:50:56;;;;;;;3.00;1.87;;;;;;;8.56;53.30;100071.00;20850074;28;20211;-86
2023/03/19 03:00:59;;;;;;;6.23;1.83;;;;;;;8.06;54.17;100069.59;20851650;28;20658;-85
2023/03/19 03:11:01;;;;;;;4.80;1.53;;;;;;;7.93;54.91;100069.78;20733540;28;20225;-90
2023/03/19 03:21:04;;;;;;;2.23;1.43;;;;;;;8.06;54.90;100072.41;20825092;28;20185;-86
2023/03/19 03:31:06;;;;;;;4.63;1.57;;;;;;;8.61;52.66;100077.28;20799540;28;20235;-86
2023/03/19 03:41:09;;;;;;;3.87;1.37;;;;;;;9.21;52.15;100067.78;20837730;28;20193;-86
2023/03/19 03:51:11;;;;;;;2.37;1.20;;;;;;;9.38;51.07;100075.31;20811164;28;20254;-93
2023/03/19 04:01:15;;;;;;;1.90;1.13;;;;;;;9.29;51.11;100078.19;20793035;28;21816;-87
2023/03/19 04:11:20;;;;;;;3.25;0.95;;;;;;;9.46;52.07;100080.06;20802210;28;20565;-87
2023/03/19 04:21:23;;;;;;;3.90;0.90;;;;;;;9.14;53.80;100088.03;20816186;28;20243;-93
2023/03/19 04:31:25;;;;;;;1.50;1.00;;;;;;;9.35;53.58;100092.91;20816551;28;20220;-87
2023/03/19 04:41:28;;;;;;;3.57;1.00;;;;;;;9.45;53.30;100098.13;20778900;28;20192;-92
2023/03/19 04:51:50;;;;;;;3.63;1.00;;;;;;;9.54;52.25;100113.84;20793399;28;20208;-92
2023/03/19 05:01:53;;;;;;;2.20;1.13;;;;;;;9.09;52.75;100124.84;20833123;28;20274;-90
2023/03/19 05:11:57;;;;;;;3.80;1.30;;;;;;;9.79;50.91;100128.97;20891327;28;20219;-90
2023/03/19 05:22:02;;;;;;;3.97;1.30;;;;;;;9.43;52.14;100134.31;20876014;28;20188;-92
2023/03/19 05:32:05;;;;;;;2.92;1.13;;;;;;;9.87;50.28;100132.88;20869522;28;20220;-92
2023/03/19 05:42:08;;;;;;;3.27;0.90;;;;;;;9.86;50.18;100142.50;20892348;28;20589;-92
2023/03/19 05:52:11;;;;;;;2.87;1.00;;;;;;;9.65;51.32;100136.03;20856743;28;20203;-87
2023/03/19 06:02:14;;;;;;;2.10;1.10;;;;;;;9.74;51.50;100140.44;20872582;28;20212;-92
2023/03/19 06:12:20;;;;;;;2.37;1.00;;;;;;;9.75;51.37;100152.53;20951748;28;20270;-91
2023/03/19 06:22:23;;;;;;;2.67;1.35;;;;;;;9.35;52.01;100172.59;20928235;28;20583;-90
2023/03/19 06:32:27;;;;;;;3.43;0.97;;;;;;;9.65;52.54;100175.47;20939194;28;20273;-93
2023/03/19 06:42:35;;;;;;;2.90;1.10;;;;;;;9.98;51.50;100193.34;20885088;28;20200;-88
2023/03/19 06:52:38;;;;;;;2.90;1.38;;;;;;;9.71;53.25;100207.94;20889549;28;20219;-91
2023/03/19 07:02:40;;;;;;;2.37;1.07;;;;;;;9.79;53.08;100204.25;20914031;28;20228;-91
2023/03/19 07:12:43;;;;;;;2.33;1.05;;;;;;;9.78;53.88;100223.16;20891638;28;20221;-91
2023/03/19 07:22:45;;;;;;;2.33;1.10;;;;;;;9.69;54.21;100222.38;20895733;28;20180;-88
2023/03/19 07:32:47;;;;;;;2.08;1.20;;;;;;;9.91;53.35;100218.44;20898281;28;20236;-88
2023/03/19 07:42:50;;;;;;;2.70;1.47;;;;;;;9.70;53.55;100234.47;20885312;28;20286;-86
2023/03/19 07:52:53;;;;;;;2.07;1.30;;;;;;;10.19;52.59;100242.16;20849095;28;20223;-86
2023/03/19 08:02:56;;;;;;;2.33;1.40;;;;;;;9.68;56.01;100253.72;20875277;28;20266;-86
2023/03/19 08:12:59;;;;;;;2.13;1.43;;;;;;;9.36;59.87;100253.16;20870062;28;20216;-86
2023/03/19 08:23:01;;;;;;;4.05;1.50;;;;;;;10.15;59.12;100258.13;20900752;28;20192;-85
2023/03/19 08:33:04;;;;;;;3.03;2.03;;;;;;;10.38;58.97;100260.59;20909675;28;20212;-81
2023/03/19 08:43:06;;;;;;;4.00;2.30;;;;;;;10.10;58.49;100278.03;20835991;28;20278;-84
2023/03/19 08:53:09;;;;;;;4.28;3.20;;;;;;;10.21;57.98;100286.97;20865238;28;20235;-85
2023/03/19 09:03:11;;;;;;;3.73;3.43;;;;;;;9.87;56.78;100290.78;20866750;28;20718;-84
2023/03/19 09:13:15;;;;;;;5.30;3.30;;;;;;;10.40;55.92;100292.97;20871529;28;20274;-85
2023/03/19 09:23:17;;;;;;;2.70;2.40;;;;;;;9.91;57.20;100301.06;20844506;28;20189;-84
2023/03/19 09:33:20;;;;;;;1.88;1.77;;;;;;;10.85;55.17;100310.09;20847189;28;20213;-84
2023/03/19 09:43:38;;;;;;;2.15;1.95;;;;;;;9.79;58.26;100320.69;20884503;28;20554;-86
2023/03/19 09:54:01;;;;;;;5.17;3.93;;;;;;;9.47;58.85;100336.16;20882535;28;20239;-85
2023/03/19 10:04:37;;;;;;;4.70;4.30;;;;;;;10.25;57.35;100325.41;20892450;28;20211;-86
2023/03/19 10:14:51;;;;;;;2.30;1.40;;;;;;;10.82;55.42;100327.72;20869449;28;20223;-86
2023/03/19 10:24:56;;;;;;;1.88;1.35;;;;;;;10.91;54.65;100330.47;20847019;28;20200;-84
2023/03/19 10:35:03;;;;;;;4.03;3.33;;;;;;;11.29;53.41;100324.66;20869215;28;20497;-85
2023/03/19 10:45:24;;;;;;;5.20;3.22;;;;;;;11.39;53.04;100321.41;20882511;28;20205;-87
2023/03/19 10:55:30;;;;;;;3.80;3.42;;;;;;;11.83;51.61;100330.25;20909717;28;20274;-86
2023/03/19 11:05:33;;;;;;;4.57;4.17;;;;;;;12.03;51.52;100326.50;20825445;28;20216;-86
2023/03/19 11:15:38;;;;;;;4.22;3.83;;;;;;;12.19;49.37;100335.97;20884708;28;20241;-88
2023/03/19 11:25:46;;;;;;;4.25;3.85;;;;;;;12.71;47.42;100329.53;20903395;28;20195;-89
2023/03/19 11:36:08;;;;;;;4.53;3.95;;;;;;;12.32;49.05;100329.13;20824075;28;20681;-86
2023/03/19 11:46:13;;;;;;;3.47;3.17;;;;;;;11.59;52.12;100328.19;20923156;28;20195;-86
2023/03/19 11:56:27;;;;;;;4.07;3.67;;;;;;;12.23;50.13;100325.59;20888667;28;20617;-88
2023/03/19 12:06:44;;;;;;;4.63;4.20;;;;;;;12.84;47.69;100310.50;20855984;28;20273;-89
2023/03/19 12:16:56;;;;;;;4.30;4.00;;;;;;;12.35;48.88;100317.09;20865091;28;20288;-89
2023/03/19 12:27:13;;;;;;;4.03;3.35;;;;;;;12.69;47.43;100314.91;20920697;28;20588;-88
2023/03/19 12:37:28;;;;;;;4.32;3.00;;;;;;;10.18;60.52;100346.88;20864466;28;20273;-85
2023/03/19 12:47:35;;;;;;;4.20;0.73;;;;;;;10.15;63.30;100351.19;20886714;28;20219;-86
2023/03/19 12:57:40;;;;;;;1.27;1.00;;;;;;;11.24;58.42;100344.66;20843824;28;20215;-88
2023/03/19 13:07:57;;;;;;;1.30;0.98;;;;;;;11.72;57.47;100341.19;20854857;28;20215;-87
2023/03/19 13:18:18;;;;;;;1.40;1.30;;;;;;;11.88;55.00;100335.69;20849894;28;20251;-85
2023/03/19 13:28:33;;;;;;;2.80;2.45;;;;;;;12.19;53.17;100335.97;20878015;28;20282;-86
2023/03/19 13:38:37;;;;;;;3.55;3.35;;;;;;;12.27;52.34;100323.72;20874136;28;20559;-88
2023/03/19 13:48:49;;;;;;;4.80;4.40;;;;;;;12.24;53.63;100332.91;20828971;28;20257;-87
2023/03/19 13:59:14;;;;;;;4.27;3.87;;;;;;;12.04;52.75;100334.63;20893992;28;20265;-88
2023/03/19 14:09:56;;;;;;;2.80;2.50;;;;;;;12.16;52.72;100336.63;20882926;28;20224;-85
2023/03/19 14:20:11;;;;;;;2.47;2.28;;;;;;;12.02;52.95;100339.00;20732958;28;20258;-85
2023/03/19 14:30:20;;;;;;;1.40;1.30;;;;;;;12.57;51.02;100335.59;20847996;28;20295;-89
2023/03/19 14:40:43;;;;;;;1.17;1.08;;;;;;;12.84;48.89;100339.66;20882363;28;20678;-85
2023/03/19 14:51:11;;;;;;;1.02;0.80;;;;;;;12.32;50.58;100333.94;20870668;28;20205;-86
2023/03/19 15:01:13;;;;;;;2.25;0.90;;;;;;;12.17;49.60;100331.78;20899361;28;20292;-87
2023/03/19 15:11:32;;;;;;;0.50;0.50;;;;;;;12.49;48.56;100333.72;20890411;28;20644;-85
2023/03/19 15:21:36;;;;;;;0.50;0.50;;;;;;;12.09;49.24;100336.41;20886881;28;20384;-86
2023/03/19 15:31:46;;;;;;;1.23;1.13;;;;;;;12.43;49.08;100348.44;20877054;28;20196;-87
2023/03/19 15:42:03;;;;;;;1.48;0.90;;;;;;;11.61;48.95;100346.47;20864962;28;20224;-88
2023/03/19 15:52:10;;;;;;;1.95;0.80;;;;;;;12.44;47.17;100342.44;20849389;28;20474;-88
2023/03/19 16:02:24;;;;;;;0.88;0.88;;;;;;;11.85;50.42;100357.00;20886261;28;20635;-88
2023/03/19 16:12:36;;;;;;;6.03;3.60;;;;;;;11.89;48.84;100359.97;20870114;28;20277;-88
2023/03/19 16:22:42;;;;;;;1.95;0.77;;;;;;;12.51;46.28;100375.84;20887974;28;20407;-88
2023/03/19 16:32:44;;;;;;;1.92;0.65;;;;;;;12.31;46.53;100386.91;20848893;28;20239;-86
2023/03/19 16:42:49;;;;;;;1.42;1.05;;;;;;;12.43;46.71;100393.75;20849235;28;20253;-86
2023/03/19 16:52:51;;;;;;;4.20;1.60;;;;;;;12.19;48.58;100398.22;20860299;28;20204;-87
2023/03/19 17:02:55;;;;;;;1.98;1.40;;;;;;;11.96;48.46;100405.47;20893550;28;20236;-88
2023/03/19 17:12:59;;;;;;;1.30;1.20;;;;;;;11.96;47.36;100408.28;20843758;28;20255;-88
2023/03/19 17:23:09;;;;;;;2.83;2.08;;;;;;;12.05;46.60;100434.47;20859813;28;20196;-87
2023/03/19 17:33:23;;;;;;;2.92;2.30;;;;;;;12.14;46.89;100446.56;20846432;28;20227;-86
2023/03/19 17:43:25;;;;;;;3.90;2.67;;;;;;;11.87;48.39;100458.50;20827829;28;20508;-85
2023/03/19 17:53:29;;;;;;;4.97;2.97;;;;;;;12.01;47.76;100470.34;20823418;28;20242;-86
2023/03/19 18:03:35;;;;;;;2.83;2.58;;;;;;;11.77;48.71;100481.56;20907049;28;20227;-92
2023/03/19 18:13:38;;;;;;;5.57;3.95;;;;;;;11.82;49.51;100495.47;20881350;28;20273;-88
2023/03/19 18:23:42;;;;;;;5.55;4.65;;;;;;;11.60;49.75;100491.84;20843438;28;20543;-91
2023/03/19 18:33:48;;;;;;;5.67;4.23;;;;;;;11.62;49.94;100514.13;20852316;28;20297;-89
2023/03/19 18:43:50;;;;;;;5.60;4.53;;;;;;;11.72;49.67;100519.34;20867676;28;20204;-89
2023/03/19 18:53:53;;;;;;;7.43;4.70;;;;;;;11.23;51.04;100536.00;20869893;28;20761;-87
2023/03/19 19:03:57;;;;;;;4.35;3.47;;;;;;;11.52;50.49;100549.28;20898385;28;20766;-90
2023/03/19 19:13:59;;;;;;;7.55;3.63;;;;;;;11.63;50.65;100564.69;20884898;28;20215;-91
2023/03/19 19:24:03;;;;;;;7.18;4.32;;;;;;;11.44;52.26;100563.47;20906882;28;20200;-91
2023/03/19 19:34:05;;;;;;;6.47;4.43;;;;;;;11.25;52.48;100575.22;20889344;28;20223;-88
2023/03/19 19:44:16;;;;;;;6.80;5.05;;;;;;;11.39;51.91;100589.94;20894179;28;20891;-88
2023/03/19 19:54:23;;;;;;;6.93;5.20;;;;;;;11.12;53.09;100613.03;20914877;28;20211;-88
2023/03/19 20:04:26;;;;;;;9.88;5.45;;;;;;;11.01;53.79;100611.72;20891586;28;20215;-88
2023/03/19 20:14:31;;;;;;;8.37;6.37;;;;;;;10.70;55.27;100621.31;20892560;28;20235;-87
2023/03/19 20:24:34;;;;;;;12.48;9.45;;;;;;;10.02;56.53;100642.75;20898133;28;20233;-88
2023/03/19 20:34:38;;;;;;;17.30;10.18;;;;;;;9.70;57.42;100657.31;20873849;28;20211;-90
2023/03/19 20:44:41;;;;;;;16.25;10.25;;;;;;;10.07;55.22;100670.81;20884278;28;20853;-89
2023/03/19 20:54:44;;;;;;;14.35;10.02;;;;;;;9.64;55.73;100676.38;20882625;28;20277;-85
2023/03/19 21:04:47;;;;;;;17.83;9.90;;;;;;;10.22;53.59;100687.22;20911193;28;20212;-88
2023/03/19 21:14:50;;;;;;;14.50;10.10;;;;;;;10.05;53.85;100703.34;20897635;28;20273;-91
2023/03/19 21:25:03;;;;;;;15.27;10.03;;;;;;;10.37;53.24;100704.81;20884193;28;20602;-87
2023/03/19 21:35:05;;;;;;;18.27;11.10;;;;;;;10.51;53.00;100716.81;20901300;28;20223;-88
2023/03/19 21:45:16;;;;;;;17.85;11.98;;;;;;;10.26;53.65;100701.50;20894689;28;20602;-89
2023/03/19 21:55:18;;;;;;;17.10;11.53;;;;;;;10.06;54.52;100705.81;20895705;28;20257;-88
2023/03/19 22:05:23;;;;;;;18.27;12.00;;;;;;;9.63;56.52;100714.19;20875657;28;20269;-87
2023/03/19 22:15:33;;;;;;;21.40;13.38;;;;;;;9.36;57.12;100720.84;20877872;28;20238;-87
2023/03/19 22:25:36;;;;;;;19.67;13.50;;;;;;;9.96;54.29;100723.03;20881839;28;20192;-87
2023/03/19 22:35:43;;;;;;;22.90;16.08;;;;;;;8.89;57.92;100727.22;20873463;28;20242;-88
2023/03/19 22:45:50;;;;;;;23.07;17.13;;;;;;;9.41;56.26;100726.34;20857852;28;20461;-91
2023/03/19 22:55:52;;;;;;;23.83;18.13;;;;;;;8.72;58.84;100745.66;20903918;28;20237;-89
2023/03/19 23:05:57;;;;;;;27.87;18.77;;;;;;;8.68;59.23;100746.59;20902276;28;20219;-92
2023/03/19 23:16:00;;;;;;;29.88;20.27;;;;;;;8.24;60.64;100765.09;20902273;28;20224;-88
2023/03/19 23:26:02;;;;;;;31.60;21.10;;;;;;;8.84;58.67;100756.34;20903823;28;20192;-89
2023/03/19 23:36:05;;;;;;;32.73;21.50;;;;;;;8.34;60.36;100772.44;20922728;28;20219;-91
2023/03/19 23:46:09;;;;;;;30.03;21.47;;;;;;;8.52;59.11;100785.53;20923057;28;20192;-91
2023/03/19 23:56:24;;;;;;;34.23;22.50;;;;;;;8.20;59.83;100789.34;20879112;28;20505;-88
